Ship Status Report: callsign CH.16

sailwx.info

Track history (hours):
 
Tides and Currents Weather Stations Pressure Air Temp Water Temp Dewpoint Dewpoint Depression Visibility Wind Speed Wind Dir Waves Ship Positions

Callsign CH.16 (name unknown)

Last reported at 2015-Aug-28 11:06 UTC. Time now 2015-Sep-01 10:10 UTC.
Position N 44°30' W 063°31'.

Length 15 m.

Type: Fishing. MMSI: 316003152.

Date/timePositionNaut miles runAvg speedWind from/ knotsBaromVisibWave heightAir tempDewpointWater temp
2015-Aug-28 11:06N 44°30' W 063°31'1 2.2
2015-Aug-28 10:29N 44°31' W 063°32'0 0.0
2015-Aug-28 09:28N 44°31' W 063°32'1 0.0
2015-Aug-26 12:22N 44°30' W 063°31'1 1.6
2015-Aug-26 11:33N 44°31' W 063°32'0 0.0
2015-Aug-26 10:29N 44°31' W 063°32'1 0.1
2015-Aug-25 11:30N 44°30' W 063°31'  
2015-Aug-19 01:09N 42°30' W 066°58'2 2.5
2015-Aug-19 00:32N 42°31' W 066°57'312.8
2015-Aug-19 00:17N 42°29' W 066°55'7 9.5
2015-Aug-18 23:33N 42°36' W 066°55'7562.6
2015-Aug-18 23:33N 42°29' W 066°56'719.2
2015-Aug-18 23:10N 42°36' W 066°58'71115.0
2015-Aug-18 22:33N 42°05' W 065°31'12 8.4
2015-Aug-18 21:04N 41°55' W 065°41'1 1.1
2015-Aug-18 20:32N 41°55' W 065°41'  
Track history (hours):
 
Tides and Currents Weather Stations Pressure Air Temp Water Temp Dewpoint Dewpoint Depression Visibility Wind Speed Wind Dir Waves Ship Positions

Callsign CH.16 (name unknown)

Last reported at 2015-Aug-28 11:06 UTC. Time now 2015-Sep-01 10:10 UTC.
Position N 44°30' W 063°31'.

Length 15 m.

Type: Fishing. MMSI: 316003152.

Date/timePositionNaut miles runAvg speedWind from/ knotsBaromVisibWave heightAir tempDewpointWater temp
2015-Aug-28 11:06N 44°30' W 063°31'1 2.2
2015-Aug-28 10:29N 44°31' W 063°32'0 0.0
2015-Aug-28 09:28N 44°31' W 063°32'1 0.0
2015-Aug-26 12:22N 44°30' W 063°31'1 1.6
2015-Aug-26 11:33N 44°31' W 063°32'0 0.0
2015-Aug-26 10:29N 44°31' W 063°32'1 0.1
2015-Aug-25 11:30N 44°30' W 063°31'  
2015-Aug-19 01:09N 42°30' W 066°58'2 2.5
2015-Aug-19 00:32N 42°31' W 066°57'312.8
2015-Aug-19 00:17N 42°29' W 066°55'7 9.5
2015-Aug-18 23:33N 42°36' W 066°55'7562.6
2015-Aug-18 23:33N 42°29' W 066°56'719.2
2015-Aug-18 23:10N 42°36' W 066°58'71115.0
2015-Aug-18 22:33N 42°05' W 065°31'12 8.4
2015-Aug-18 21:04N 41°55' W 065°41'1 1.1
2015-Aug-18 20:32N 41°55' W 065°41'  

Dump ship's entire track history